sensor_id;sensor_type;location;lat;lon;timestamp;P1;durP1;ratioP1;P2;durP2;ratioP2
28007;SDS011;15333;50.010;20.020;2023-11-18T00:00:09;23.33;;;15.50;;
28007;SDS011;15333;50.010;20.020;2023-11-18T00:03:34;23.45;;;15.05;;
28007;SDS011;15333;50.010;20.020;2023-11-18T00:06:35;21.23;;;15.05;;
28007;SDS011;15333;50.010;20.020;2023-11-18T00:09:36;21.75;;;14.57;;
28007;SDS011;15333;50.010;20.020;2023-11-18T00:12:37;20.88;;;14.45;;
28007;SDS011;15333;50.010;20.020;2023-11-18T00:15:42;23.17;;;14.88;;
28007;SDS011;15333;50.010;20.020;2023-11-18T00:18:43;21.15;;;14.40;;
28007;SDS011;15333;50.010;20.020;2023-11-18T00:21:44;22.05;;;15.52;;
28007;SDS011;15333;50.010;20.020;2023-11-18T00:24:44;19.98;;;13.65;;
28007;SDS011;15333;50.010;20.020;2023-11-18T00:27:45;18.60;;;12.98;;
28007;SDS011;15333;50.010;20.020;2023-11-18T00:30:46;17.95;;;13.25;;
28007;SDS011;15333;50.010;20.020;2023-11-18T00:33:47;20.48;;;14.38;;
28007;SDS011;15333;50.010;20.020;2023-11-18T00:36:48;20.48;;;15.18;;
28007;SDS011;15333;50.010;20.020;2023-11-18T00:39:49;22.27;;;16.35;;
28007;SDS011;15333;50.010;20.020;2023-11-18T00:42:49;25.05;;;17.38;;
28007;SDS011;15333;50.010;20.020;2023-11-18T00:45:50;24.23;;;17.15;;
28007;SDS011;15333;50.010;20.020;2023-11-18T00:48:52;23.63;;;16.85;;
28007;SDS011;15333;50.010;20.020;2023-11-18T00:51:52;24.23;;;16.55;;
28007;SDS011;15333;50.010;20.020;2023-11-18T00:54:53;24.65;;;17.40;;
28007;SDS011;15333;50.010;20.020;2023-11-18T00:57:54;25.35;;;17.75;;
28007;SDS011;15333;50.010;20.020;2023-11-18T01:00:55;23.45;;;17.23;;
28007;SDS011;15333;50.010;20.020;2023-11-18T01:03:55;24.30;;;15.85;;
28007;SDS011;15333;50.010;20.020;2023-11-18T01:07:00;22.08;;;14.73;;
28007;SDS011;15333;50.010;20.020;2023-11-18T01:10:00;21.95;;;14.95;;
28007;SDS011;15333;50.010;20.020;2023-11-18T01:13:01;23.02;;;14.98;;
28007;SDS011;15333;50.010;20.020;2023-11-18T01:16:02;22.50;;;15.75;;
28007;SDS011;15333;50.010;20.020;2023-11-18T01:19:05;24.08;;;16.30;;
28007;SDS011;15333;50.010;20.020;2023-11-18T01:22:09;25.25;;;16.77;;
28007;SDS011;15333;50.010;20.020;2023-11-18T01:25:13;24.33;;;17.17;;
28007;SDS011;15333;50.010;20.020;2023-11-18T01:28:14;29.38;;;17.88;;
28007;SDS011;15333;50.010;20.020;2023-11-18T01:31:16;28.90;;;18.10;;
28007;SDS011;15333;50.010;20.020;2023-11-18T01:34:18;26.40;;;17.48;;
28007;SDS011;15333;50.010;20.020;2023-11-18T01:37:22;26.13;;;18.23;;
28007;SDS011;15333;50.010;20.020;2023-11-18T01:40:24;27.00;;;18.05;;
28007;SDS011;15333;50.010;20.020;2023-11-18T01:43:25;22.58;;;16.38;;
28007;SDS011;15333;50.010;20.020;2023-11-18T01:46:25;26.13;;;17.40;;
28007;SDS011;15333;50.010;20.020;2023-11-18T01:49:27;26.52;;;16.77;;
28007;SDS011;15333;50.010;20.020;2023-11-18T01:52:28;23.38;;;15.77;;
28007;SDS011;15333;50.010;20.020;2023-11-18T01:55:31;27.17;;;17.70;;
28007;SDS011;15333;50.010;20.020;2023-11-18T01:58:34;26.50;;;17.42;;
28007;SDS011;15333;50.010;20.020;2023-11-18T02:01:37;26.88;;;17.40;;
28007;SDS011;15333;50.010;20.020;2023-11-18T02:04:39;30.00;;;19.13;;
28007;SDS011;15333;50.010;20.020;2023-11-18T02:07:40;30.63;;;20.70;;
28007;SDS011;15333;50.010;20.020;2023-11-18T02:10:48;32.65;;;20.98;;
28007;SDS011;15333;50.010;20.020;2023-11-18T02:13:56;29.08;;;20.75;;
28007;SDS011;15333;50.010;20.020;2023-11-18T02:17:03;31.88;;;20.85;;
28007;SDS011;15333;50.010;20.020;2023-11-18T02:20:07;30.17;;;20.20;;
28007;SDS011;15333;50.010;20.020;2023-11-18T02:23:16;29.60;;;21.42;;
28007;SDS011;15333;50.010;20.020;2023-11-18T02:26:27;33.92;;;21.63;;
28007;SDS011;15333;50.010;20.020;2023-11-18T02:29:33;28.50;;;20.10;;
28007;SDS011;15333;50.010;20.020;2023-11-18T02:32:44;32.60;;;21.98;;
28007;SDS011;15333;50.010;20.020;2023-11-18T02:35:54;33.58;;;23.50;;
28007;SDS011;15333;50.010;20.020;2023-11-18T02:39:08;33.58;;;23.40;;
28007;SDS011;15333;50.010;20.020;2023-11-18T02:42:17;40.28;;;25.73;;
28007;SDS011;15333;50.010;20.020;2023-11-18T02:45:18;34.70;;;23.90;;
28007;SDS011;15333;50.010;20.020;2023-11-18T02:48:21;37.08;;;25.40;;
28007;SDS011;15333;50.010;20.020;2023-11-18T02:51:22;39.17;;;25.90;;
28007;SDS011;15333;50.010;20.020;2023-11-18T02:54:23;40.05;;;26.55;;
28007;SDS011;15333;50.010;20.020;2023-11-18T02:57:24;42.72;;;25.77;;
28007;SDS011;15333;50.010;20.020;2023-11-18T03:00:24;39.38;;;27.13;;
28007;SDS011;15333;50.010;20.020;2023-11-18T03:03:26;39.78;;;26.73;;
28007;SDS011;15333;50.010;20.020;2023-11-18T03:06:28;43.72;;;29.08;;
28007;SDS011;15333;50.010;20.020;2023-11-18T03:09:29;42.58;;;29.25;;
28007;SDS011;15333;50.010;20.020;2023-11-18T03:12:30;40.78;;;28.15;;
28007;SDS011;15333;50.010;20.020;2023-11-18T03:15:31;38.88;;;28.25;;
28007;SDS011;15333;50.010;20.020;2023-11-18T03:18:32;40.22;;;28.40;;
28007;SDS011;15333;50.010;20.020;2023-11-18T03:21:33;38.35;;;27.65;;
28007;SDS011;15333;50.010;20.020;2023-11-18T03:24:34;37.67;;;25.73;;
28007;SDS011;15333;50.010;20.020;2023-11-18T03:27:35;40.13;;;26.60;;
28007;SDS011;15333;50.010;20.020;2023-11-18T03:30:35;37.20;;;26.40;;
28007;SDS011;15333;50.010;20.020;2023-11-18T03:33:38;39.72;;;26.50;;
28007;SDS011;15333;50.010;20.020;2023-11-18T03:36:40;36.80;;;25.30;;
28007;SDS011;15333;50.010;20.020;2023-11-18T03:39:41;35.28;;;26.73;;
28007;SDS011;15333;50.010;20.020;2023-11-18T03:42:41;36.40;;;26.35;;
28007;SDS011;15333;50.010;20.020;2023-11-18T03:45:42;38.72;;;27.00;;
28007;SDS011;15333;50.010;20.020;2023-11-18T03:48:46;36.10;;;27.20;;
28007;SDS011;15333;50.010;20.020;2023-11-18T03:51:47;38.03;;;27.17;;
28007;SDS011;15333;50.010;20.020;2023-11-18T03:54:49;31.80;;;23.00;;
28007;SDS011;15333;50.010;20.020;2023-11-18T03:57:50;32.83;;;23.73;;
28007;SDS011;15333;50.010;20.020;2023-11-18T04:00:51;38.92;;;27.90;;
28007;SDS011;15333;50.010;20.020;2023-11-18T04:03:52;39.05;;;27.30;;
28007;SDS011;15333;50.010;20.020;2023-11-18T04:06:53;36.20;;;26.95;;
28007;SDS011;15333;50.010;20.020;2023-11-18T04:09:56;36.90;;;27.55;;
28007;SDS011;15333;50.010;20.020;2023-11-18T04:12:57;36.28;;;26.65;;
28007;SDS011;15333;50.010;20.020;2023-11-18T04:15:57;36.63;;;26.33;;
28007;SDS011;15333;50.010;20.020;2023-11-18T04:18:58;36.65;;;26.73;;
28007;SDS011;15333;50.010;20.020;2023-11-18T04:21:59;36.25;;;26.65;;
28007;SDS011;15333;50.010;20.020;2023-11-18T04:25:00;32.83;;;24.50;;
28007;SDS011;15333;50.010;20.020;2023-11-18T04:28:01;31.33;;;23.15;;
28007;SDS011;15333;50.010;20.020;2023-11-18T04:31:02;32.65;;;24.10;;
28007;SDS011;15333;50.010;20.020;2023-11-18T04:34:03;31.42;;;23.35;;
28007;SDS011;15333;50.010;20.020;2023-11-18T04:37:06;31.08;;;23.45;;
28007;SDS011;15333;50.010;20.020;2023-11-18T04:40:08;31.98;;;23.27;;
28007;SDS011;15333;50.010;20.020;2023-11-18T04:43:14;31.05;;;22.92;;
28007;SDS011;15333;50.010;20.020;2023-11-18T04:46:16;30.27;;;22.38;;
28007;SDS011;15333;50.010;20.020;2023-11-18T04:49:16;30.48;;;22.27;;
28007;SDS011;15333;50.010;20.020;2023-11-18T04:52:17;30.73;;;22.77;;
28007;SDS011;15333;50.010;20.020;2023-11-18T04:55:18;32.17;;;22.70;;
28007;SDS011;15333;50.010;20.020;2023-11-18T04:58:20;33.08;;;21.48;;
28007;SDS011;15333;50.010;20.020;2023-11-18T05:01:21;30.52;;;22.52;;
28007;SDS011;15333;50.010;20.020;2023-11-18T05:04:22;31.95;;;22.73;;
28007;SDS011;15333;50.010;20.020;2023-11-18T05:07:22;33.92;;;22.90;;
28007;SDS011;15333;50.010;20.020;2023-11-18T05:10:23;30.17;;;22.83;;
28007;SDS011;15333;50.010;20.020;2023-11-18T05:13:24;26.23;;;19.55;;
28007;SDS011;15333;50.010;20.020;2023-11-18T05:16:27;23.58;;;17.35;;
28007;SDS011;15333;50.010;20.020;2023-11-18T05:19:28;23.52;;;17.77;;
28007;SDS011;15333;50.010;20.020;2023-11-18T05:22:29;25.20;;;19.42;;
28007;SDS011;15333;50.010;20.020;2023-11-18T05:25:30;27.05;;;21.10;;
28007;SDS011;15333;50.010;20.020;2023-11-18T05:28:33;26.08;;;19.40;;
28007;SDS011;15333;50.010;20.020;2023-11-18T05:31:34;30.85;;;21.38;;
28007;SDS011;15333;50.010;20.020;2023-11-18T05:34:36;27.35;;;20.40;;
28007;SDS011;15333;50.010;20.020;2023-11-18T05:37:36;31.92;;;21.77;;
28007;SDS011;15333;50.010;20.020;2023-11-18T05:40:38;30.00;;;20.55;;
28007;SDS011;15333;50.010;20.020;2023-11-18T05:43:43;31.95;;;22.70;;
28007;SDS011;15333;50.010;20.020;2023-11-18T05:46:51;33.25;;;22.23;;
28007;SDS011;15333;50.010;20.020;2023-11-18T05:49:52;31.75;;;23.05;;
28007;SDS011;15333;50.010;20.020;2023-11-18T05:52:54;30.20;;;21.63;;
28007;SDS011;15333;50.010;20.020;2023-11-18T05:55:55;29.85;;;20.30;;
28007;SDS011;15333;50.010;20.020;2023-11-18T05:58:56;31.13;;;21.40;;
28007;SDS011;15333;50.010;20.020;2023-11-18T06:01:57;29.55;;;21.80;;
28007;SDS011;15333;50.010;20.020;2023-11-18T06:04:58;29.73;;;20.45;;
28007;SDS011;15333;50.010;20.020;2023-11-18T06:07:58;30.08;;;21.13;;
28007;SDS011;15333;50.010;20.020;2023-11-18T06:10:59;30.33;;;22.10;;
28007;SDS011;15333;50.010;20.020;2023-11-18T06:14:05;28.83;;;20.27;;
28007;SDS011;15333;50.010;20.020;2023-11-18T06:17:09;27.08;;;19.45;;
28007;SDS011;15333;50.010;20.020;2023-11-18T06:20:09;28.35;;;21.42;;
28007;SDS011;15333;50.010;20.020;2023-11-18T06:23:11;30.05;;;21.67;;
28007;SDS011;15333;50.010;20.020;2023-11-18T06:26:12;28.75;;;20.98;;
28007;SDS011;15333;50.010;20.020;2023-11-18T06:29:13;26.48;;;19.38;;
28007;SDS011;15333;50.010;20.020;2023-11-18T06:32:14;27.23;;;19.13;;
28007;SDS011;15333;50.010;20.020;2023-11-18T06:35:16;22.77;;;17.92;;
28007;SDS011;15333;50.010;20.020;2023-11-18T06:38:17;26.75;;;19.48;;
28007;SDS011;15333;50.010;20.020;2023-11-18T06:41:20;27.05;;;20.35;;
28007;SDS011;15333;50.010;20.020;2023-11-18T06:44:23;30.40;;;21.02;;
28007;SDS011;15333;50.010;20.020;2023-11-18T06:47:24;25.30;;;18.63;;
28007;SDS011;15333;50.010;20.020;2023-11-18T06:50:25;27.35;;;20.38;;
28007;SDS011;15333;50.010;20.020;2023-11-18T06:53:27;26.67;;;19.15;;
28007;SDS011;15333;50.010;20.020;2023-11-18T06:56:28;34.45;;;20.05;;
28007;SDS011;15333;50.010;20.020;2023-11-18T06:59:29;22.83;;;16.98;;
28007;SDS011;15333;50.010;20.020;2023-11-18T07:02:29;23.02;;;18.33;;
28007;SDS011;15333;50.010;20.020;2023-11-18T07:05:30;22.13;;;15.73;;
28007;SDS011;15333;50.010;20.020;2023-11-18T07:08:31;18.85;;;14.25;;
28007;SDS011;15333;50.010;20.020;2023-11-18T07:11:33;20.08;;;15.52;;
28007;SDS011;15333;50.010;20.020;2023-11-18T07:14:34;20.92;;;15.50;;
28007;SDS011;15333;50.010;20.020;2023-11-18T07:17:35;21.50;;;16.08;;
28007;SDS011;15333;50.010;20.020;2023-11-18T07:20:36;26.45;;;18.00;;
28007;SDS011;15333;50.010;20.020;2023-11-18T07:23:37;26.30;;;17.60;;
28007;SDS011;15333;50.010;20.020;2023-11-18T07:26:38;24.45;;;17.55;;
28007;SDS011;15333;50.010;20.020;2023-11-18T07:29:39;24.90;;;17.48;;
28007;SDS011;15333;50.010;20.020;2023-11-18T07:32:39;23.85;;;17.15;;
28007;SDS011;15333;50.010;20.020;2023-11-18T07:35:40;20.63;;;15.43;;
28007;SDS011;15333;50.010;20.020;2023-11-18T07:38:42;22.50;;;15.90;;
28007;SDS011;15333;50.010;20.020;2023-11-18T07:41:43;20.73;;;15.75;;
28007;SDS011;15333;50.010;20.020;2023-11-18T07:44:44;24.05;;;14.52;;
28007;SDS011;15333;50.010;20.020;2023-11-18T07:47:45;18.90;;;13.30;;
28007;SDS011;15333;50.010;20.020;2023-11-18T07:50:46;18.85;;;13.15;;
28007;SDS011;15333;50.010;20.020;2023-11-18T07:53:48;17.25;;;11.52;;
28007;SDS011;15333;50.010;20.020;2023-11-18T07:56:50;11.07;;;8.85;;
28007;SDS011;15333;50.010;20.020;2023-11-18T07:59:53;10.35;;;7.78;;
28007;SDS011;15333;50.010;20.020;2023-11-18T08:02:53;10.82;;;8.68;;
28007;SDS011;15333;50.010;20.020;2023-11-18T08:05:55;14.02;;;9.40;;
28007;SDS011;15333;50.010;20.020;2023-11-18T08:08:55;13.00;;;8.88;;
28007;SDS011;15333;50.010;20.020;2023-11-18T08:11:58;9.10;;;6.88;;
28007;SDS011;15333;50.010;20.020;2023-11-18T08:15:01;9.93;;;7.47;;
28007;SDS011;15333;50.010;20.020;2023-11-18T08:18:03;10.15;;;7.40;;
28007;SDS011;15333;50.010;20.020;2023-11-18T08:21:04;11.70;;;7.50;;
28007;SDS011;15333;50.010;20.020;2023-11-18T08:24:07;12.45;;;8.40;;
28007;SDS011;15333;50.010;20.020;2023-11-18T08:27:08;11.77;;;8.10;;
28007;SDS011;15333;50.010;20.020;2023-11-18T08:30:10;10.30;;;7.93;;
28007;SDS011;15333;50.010;20.020;2023-11-18T08:33:12;12.35;;;8.82;;
28007;SDS011;15333;50.010;20.020;2023-11-18T08:36:13;12.02;;;9.05;;
28007;SDS011;15333;50.010;20.020;2023-11-18T08:39:14;13.55;;;9.25;;
28007;SDS011;15333;50.010;20.020;2023-11-18T08:42:17;13.35;;;9.07;;
28007;SDS011;15333;50.010;20.020;2023-11-18T08:48:28;15.65;;;10.02;;
28007;SDS011;15333;50.010;20.020;2023-11-18T08:51:28;15.05;;;10.57;;
28007;SDS011;15333;50.010;20.020;2023-11-18T08:54:29;14.82;;;10.13;;
28007;SDS011;15333;50.010;20.020;2023-11-18T08:57:38;19.13;;;11.57;;
28007;SDS011;15333;50.010;20.020;2023-11-18T09:00:54;18.55;;;12.18;;
28007;SDS011;15333;50.010;20.020;2023-11-18T09:04:02;18.40;;;12.18;;
28007;SDS011;15333;50.010;20.020;2023-11-18T09:07:03;19.85;;;12.63;;
28007;SDS011;15333;50.010;20.020;2023-11-18T09:10:04;19.88;;;12.88;;
28007;SDS011;15333;50.010;20.020;2023-11-18T09:13:06;19.92;;;13.05;;
28007;SDS011;15333;50.010;20.020;2023-11-18T09:16:06;20.30;;;13.57;;
28007;SDS011;15333;50.010;20.020;2023-11-18T09:19:11;23.80;;;14.88;;
28007;SDS011;15333;50.010;20.020;2023-11-18T09:22:12;20.23;;;14.10;;
28007;SDS011;15333;50.010;20.020;2023-11-18T09:25:15;21.98;;;14.48;;
28007;SDS011;15333;50.010;20.020;2023-11-18T09:28:16;23.52;;;14.48;;
28007;SDS011;15333;50.010;20.020;2023-11-18T09:31:17;22.92;;;15.38;;
28007;SDS011;15333;50.010;20.020;2023-11-18T09:34:18;20.90;;;13.65;;
28007;SDS011;15333;50.010;20.020;2023-11-18T09:37:27;20.50;;;13.43;;
28007;SDS011;15333;50.010;20.020;2023-11-18T09:40:28;20.48;;;13.18;;
28007;SDS011;15333;50.010;20.020;2023-11-18T09:43:33;14.07;;;9.80;;
28007;SDS011;15333;50.010;20.020;2023-11-18T09:46:42;14.85;;;10.35;;
28007;SDS011;15333;50.010;20.020;2023-11-18T09:49:56;12.05;;;8.30;;
28007;SDS011;15333;50.010;20.020;2023-11-18T09:53:04;10.98;;;8.45;;
28007;SDS011;15333;50.010;20.020;2023-11-18T09:56:18;13.80;;;9.93;;
28007;SDS011;15333;50.010;20.020;2023-11-18T09:59:31;14.68;;;10.10;;
28007;SDS011;15333;50.010;20.020;2023-11-18T10:02:39;13.25;;;10.43;;
28007;SDS011;15333;50.010;20.020;2023-11-18T10:05:40;13.65;;;10.73;;
28007;SDS011;15333;50.010;20.020;2023-11-18T10:08:42;20.40;;;13.23;;
28007;SDS011;15333;50.010;20.020;2023-11-18T10:11:49;20.35;;;14.68;;
28007;SDS011;15333;50.010;20.020;2023-11-18T10:14:50;23.77;;;17.77;;
28007;SDS011;15333;50.010;20.020;2023-11-18T10:17:54;26.58;;;18.75;;
28007;SDS011;15333;50.010;20.020;2023-11-18T10:21:07;25.85;;;18.00;;
28007;SDS011;15333;50.010;20.020;2023-11-18T10:24:11;25.85;;;18.27;;
28007;SDS011;15333;50.010;20.020;2023-11-18T10:27:21;24.23;;;17.73;;
28007;SDS011;15333;50.010;20.020;2023-11-18T10:30:23;24.85;;;17.55;;
28007;SDS011;15333;50.010;20.020;2023-11-18T10:33:26;24.63;;;18.33;;
28007;SDS011;15333;50.010;20.020;2023-11-18T10:36:33;23.90;;;17.10;;
28007;SDS011;15333;50.010;20.020;2023-11-18T10:39:37;22.10;;;16.38;;
28007;SDS011;15333;50.010;20.020;2023-11-18T10:42:37;24.60;;;17.02;;
28007;SDS011;15333;50.010;20.020;2023-11-18T10:45:39;21.80;;;15.80;;
28007;SDS011;15333;50.010;20.020;2023-11-18T10:48:41;19.95;;;15.10;;
28007;SDS011;15333;50.010;20.020;2023-11-18T10:51:43;20.67;;;15.40;;
28007;SDS011;15333;50.010;20.020;2023-11-18T10:54:50;21.48;;;15.63;;
28007;SDS011;15333;50.010;20.020;2023-11-18T10:57:55;19.55;;;13.98;;
28007;SDS011;15333;50.010;20.020;2023-11-18T11:00:58;17.75;;;13.20;;
28007;SDS011;15333;50.010;20.020;2023-11-18T11:04:01;17.95;;;14.13;;
28007;SDS011;15333;50.010;20.020;2023-11-18T11:07:04;23.45;;;15.65;;
28007;SDS011;15333;50.010;20.020;2023-11-18T11:10:06;20.73;;;15.32;;
28007;SDS011;15333;50.010;20.020;2023-11-18T11:13:07;19.85;;;14.93;;
28007;SDS011;15333;50.010;20.020;2023-11-18T11:16:10;19.45;;;15.55;;
28007;SDS011;15333;50.010;20.020;2023-11-18T11:19:38;20.85;;;15.98;;
28007;SDS011;15333;50.010;20.020;2023-11-18T11:26:50;19.23;;;15.20;;
28007;SDS011;15333;50.010;20.020;2023-11-18T11:30:02;19.98;;;14.43;;
28007;SDS011;15333;50.010;20.020;2023-11-18T11:33:29;17.60;;;13.75;;
28007;SDS011;15333;50.010;20.020;2023-11-18T11:36:47;19.87;;;14.90;;
28007;SDS011;15333;50.010;20.020;2023-11-18T11:39:51;17.55;;;13.77;;
28007;SDS011;15333;50.010;20.020;2023-11-18T11:42:54;16.60;;;13.43;;
28007;SDS011;15333;50.010;20.020;2023-11-18T11:45:56;17.70;;;13.95;;
28007;SDS011;15333;50.010;20.020;2023-11-18T11:48:57;18.95;;;14.27;;
28007;SDS011;15333;50.010;20.020;2023-11-18T11:52:04;19.05;;;13.63;;
28007;SDS011;15333;50.010;20.020;2023-11-18T11:55:19;18.25;;;14.15;;
28007;SDS011;15333;50.010;20.020;2023-11-18T11:58:33;17.95;;;14.45;;
28007;SDS011;15333;50.010;20.020;2023-11-18T12:01:37;17.73;;;13.60;;
28007;SDS011;15333;50.010;20.020;2023-11-18T12:04:39;18.73;;;14.82;;
28007;SDS011;15333;50.010;20.020;2023-11-18T12:07:42;17.27;;;13.70;;
28007;SDS011;15333;50.010;20.020;2023-11-18T12:10:50;16.23;;;12.90;;
28007;SDS011;15333;50.010;20.020;2023-11-18T12:14:03;15.38;;;12.90;;
28007;SDS011;15333;50.010;20.020;2023-11-18T12:17:12;15.23;;;12.55;;
28007;SDS011;15333;50.010;20.020;2023-11-18T12:20:37;15.85;;;12.60;;
28007;SDS011;15333;50.010;20.020;2023-11-18T12:30:54;15.82;;;11.88;;
28007;SDS011;15333;50.010;20.020;2023-11-18T12:34:05;15.98;;;12.77;;
28007;SDS011;15333;50.010;20.020;2023-11-18T12:37:17;16.80;;;13.15;;
28007;SDS011;15333;50.010;20.020;2023-11-18T12:40:52;14.93;;;12.60;;
28007;SDS011;15333;50.010;20.020;2023-11-18T12:44:16;16.92;;;13.50;;
28007;SDS011;15333;50.010;20.020;2023-11-18T12:47:36;16.58;;;13.07;;
28007;SDS011;15333;50.010;20.020;2023-11-18T12:50:41;18.08;;;14.15;;
28007;SDS011;15333;50.010;20.020;2023-11-18T12:53:48;15.98;;;12.85;;
28007;SDS011;15333;50.010;20.020;2023-11-18T12:56:51;16.63;;;12.63;;
28007;SDS011;15333;50.010;20.020;2023-11-18T12:59:54;16.17;;;13.38;;
28007;SDS011;15333;50.010;20.020;2023-11-18T13:02:55;17.30;;;13.93;;
28007;SDS011;15333;50.010;20.020;2023-11-18T13:05:58;15.43;;;13.27;;
28007;SDS011;15333;50.010;20.020;2023-11-18T13:08:59;17.33;;;13.65;;
28007;SDS011;15333;50.010;20.020;2023-11-18T13:12:06;17.48;;;13.63;;
28007;SDS011;15333;50.010;20.020;2023-11-18T13:15:09;20.20;;;15.32;;
28007;SDS011;15333;50.010;20.020;2023-11-18T13:18:10;18.58;;;13.95;;
28007;SDS011;15333;50.010;20.020;2023-11-18T13:21:16;16.80;;;13.77;;
28007;SDS011;15333;50.010;20.020;2023-11-18T13:24:18;17.88;;;13.80;;
28007;SDS011;15333;50.010;20.020;2023-11-18T13:27:18;18.00;;;14.00;;
28007;SDS011;15333;50.010;20.020;2023-11-18T13:30:20;18.70;;;14.65;;
28007;SDS011;15333;50.010;20.020;2023-11-18T13:33:21;18.33;;;14.88;;
28007;SDS011;15333;50.010;20.020;2023-11-18T13:36:23;18.00;;;13.85;;
28007;SDS011;15333;50.010;20.020;2023-11-18T13:39:25;19.33;;;14.85;;
28007;SDS011;15333;50.010;20.020;2023-11-18T13:42:28;19.27;;;13.85;;
28007;SDS011;15333;50.010;20.020;2023-11-18T13:45:29;19.17;;;14.73;;
28007;SDS011;15333;50.010;20.020;2023-11-18T13:48:31;18.13;;;14.00;;
28007;SDS011;15333;50.010;20.020;2023-11-18T13:51:34;17.58;;;14.18;;
28007;SDS011;15333;50.010;20.020;2023-11-18T13:54:37;16.73;;;12.82;;
28007;SDS011;15333;50.010;20.020;2023-11-18T13:57:38;17.58;;;13.73;;
28007;SDS011;15333;50.010;20.020;2023-11-18T14:00:40;18.25;;;12.27;;
28007;SDS011;15333;50.010;20.020;2023-11-18T14:03:41;17.30;;;13.80;;
28007;SDS011;15333;50.010;20.020;2023-11-18T14:06:44;17.92;;;14.10;;
28007;SDS011;15333;50.010;20.020;2023-11-18T14:09:46;16.17;;;13.13;;
28007;SDS011;15333;50.010;20.020;2023-11-18T14:13:00;18.45;;;13.45;;
28007;SDS011;15333;50.010;20.020;2023-11-18T14:16:06;15.82;;;12.30;;
28007;SDS011;15333;50.010;20.020;2023-11-18T14:19:10;17.33;;;12.77;;
28007;SDS011;15333;50.010;20.020;2023-11-18T14:22:11;19.80;;;12.98;;
28007;SDS011;15333;50.010;20.020;2023-11-18T14:25:13;16.65;;;12.77;;
28007;SDS011;15333;50.010;20.020;2023-11-18T14:28:14;18.42;;;13.43;;
28007;SDS011;15333;50.010;20.020;2023-11-18T14:31:15;18.30;;;14.13;;
28007;SDS011;15333;50.010;20.020;2023-11-18T14:34:16;17.77;;;12.85;;
28007;SDS011;15333;50.010;20.020;2023-11-18T14:37:18;18.75;;;14.38;;
28007;SDS011;15333;50.010;20.020;2023-11-18T14:40:19;16.30;;;12.55;;
28007;SDS011;15333;50.010;20.020;2023-11-18T14:43:24;17.58;;;13.40;;
28007;SDS011;15333;50.010;20.020;2023-11-18T14:46:25;18.38;;;13.98;;
28007;SDS011;15333;50.010;20.020;2023-11-18T14:49:27;19.90;;;14.07;;
28007;SDS011;15333;50.010;20.020;2023-11-18T14:52:28;19.40;;;14.50;;
28007;SDS011;15333;50.010;20.020;2023-11-18T14:55:29;18.20;;;13.00;;
28007;SDS011;15333;50.010;20.020;2023-11-18T14:58:31;20.20;;;13.30;;
28007;SDS011;15333;50.010;20.020;2023-11-18T15:01:36;19.30;;;13.68;;
28007;SDS011;15333;50.010;20.020;2023-11-18T15:04:37;16.95;;;13.57;;
28007;SDS011;15333;50.010;20.020;2023-11-18T15:07:38;17.42;;;14.00;;
28007;SDS011;15333;50.010;20.020;2023-11-18T15:10:40;18.05;;;14.13;;
28007;SDS011;15333;50.010;20.020;2023-11-18T15:13:42;18.10;;;14.38;;
28007;SDS011;15333;50.010;20.020;2023-11-18T15:16:43;19.58;;;14.18;;
28007;SDS011;15333;50.010;20.020;2023-11-18T15:19:45;18.63;;;14.57;;
28007;SDS011;15333;50.010;20.020;2023-11-18T15:22:46;20.27;;;15.45;;
28007;SDS011;15333;50.010;20.020;2023-11-18T15:25:47;21.08;;;15.30;;
28007;SDS011;15333;50.010;20.020;2023-11-18T15:28:50;20.92;;;15.13;;
28007;SDS011;15333;50.010;20.020;2023-11-18T15:31:53;23.90;;;16.00;;
28007;SDS011;15333;50.010;20.020;2023-11-18T15:34:55;21.98;;;15.95;;
28007;SDS011;15333;50.010;20.020;2023-11-18T15:37:58;20.63;;;16.63;;
28007;SDS011;15333;50.010;20.020;2023-11-18T15:40:59;25.48;;;18.13;;
28007;SDS011;15333;50.010;20.020;2023-11-18T15:44:00;25.13;;;18.70;;
28007;SDS011;15333;50.010;20.020;2023-11-18T15:47:00;25.55;;;17.55;;
28007;SDS011;15333;50.010;20.020;2023-11-18T15:50:02;23.40;;;17.98;;
28007;SDS011;15333;50.010;20.020;2023-11-18T15:53:03;28.38;;;18.63;;
28007;SDS011;15333;50.010;20.020;2023-11-18T15:56:08;27.92;;;19.77;;
28007;SDS011;15333;50.010;20.020;2023-11-18T15:59:11;25.58;;;19.52;;
28007;SDS011;15333;50.010;20.020;2023-11-18T16:02:12;26.55;;;20.17;;
28007;SDS011;15333;50.010;20.020;2023-11-18T16:05:15;29.30;;;19.25;;
28007;SDS011;15333;50.010;20.020;2023-11-18T16:08:17;24.83;;;19.80;;
28007;SDS011;15333;50.010;20.020;2023-11-18T16:11:18;27.25;;;20.20;;
28007;SDS011;15333;50.010;20.020;2023-11-18T16:14:19;28.48;;;20.83;;
28007;SDS011;15333;50.010;20.020;2023-11-18T16:17:21;26.35;;;20.85;;
28007;SDS011;15333;50.010;20.020;2023-11-18T16:20:24;29.17;;;21.58;;
28007;SDS011;15333;50.010;20.020;2023-11-18T16:23:29;27.02;;;20.17;;
28007;SDS011;15333;50.010;20.020;2023-11-18T16:26:35;29.15;;;22.17;;
28007;SDS011;15333;50.010;20.020;2023-11-18T16:29:36;32.10;;;21.40;;
28007;SDS011;15333;50.010;20.020;2023-11-18T16:32:37;30.98;;;22.02;;
28007;SDS011;15333;50.010;20.020;2023-11-18T16:35:38;29.00;;;21.83;;
28007;SDS011;15333;50.010;20.020;2023-11-18T16:38:39;33.80;;;21.48;;
28007;SDS011;15333;50.010;20.020;2023-11-18T16:41:42;30.02;;;21.70;;
28007;SDS011;15333;50.010;20.020;2023-11-18T16:44:43;31.17;;;22.65;;
28007;SDS011;15333;50.010;20.020;2023-11-18T16:47:43;33.95;;;22.85;;
28007;SDS011;15333;50.010;20.020;2023-11-18T16:50:46;31.70;;;22.92;;
28007;SDS011;15333;50.010;20.020;2023-11-18T16:53:47;31.17;;;22.65;;
28007;SDS011;15333;50.010;20.020;2023-11-18T16:56:48;29.67;;;21.98;;
28007;SDS011;15333;50.010;20.020;2023-11-18T16:59:49;32.00;;;23.08;;
28007;SDS011;15333;50.010;20.020;2023-11-18T17:02:51;32.00;;;23.63;;
28007;SDS011;15333;50.010;20.020;2023-11-18T17:05:57;29.92;;;22.60;;
28007;SDS011;15333;50.010;20.020;2023-11-18T17:08:58;31.13;;;22.45;;
28007;SDS011;15333;50.010;20.020;2023-11-18T17:11:59;29.63;;;21.48;;
28007;SDS011;15333;50.010;20.020;2023-11-18T17:15:00;29.55;;;21.70;;
28007;SDS011;15333;50.010;20.020;2023-11-18T17:18:00;25.67;;;19.50;;
28007;SDS011;15333;50.010;20.020;2023-11-18T17:21:02;27.20;;;19.98;;
28007;SDS011;15333;50.010;20.020;2023-11-18T17:24:03;29.15;;;21.35;;
28007;SDS011;15333;50.010;20.020;2023-11-18T17:27:05;32.05;;;21.63;;
28007;SDS011;15333;50.010;20.020;2023-11-18T17:30:07;28.77;;;20.60;;
28007;SDS011;15333;50.010;20.020;2023-11-18T17:33:16;30.42;;;21.70;;
28007;SDS011;15333;50.010;20.020;2023-11-18T17:36:16;29.75;;;21.80;;
28007;SDS011;15333;50.010;20.020;2023-11-18T17:39:21;32.22;;;23.02;;
28007;SDS011;15333;50.010;20.020;2023-11-18T17:42:21;33.20;;;23.98;;
28007;SDS011;15333;50.010;20.020;2023-11-18T17:45:22;34.75;;;24.30;;
28007;SDS011;15333;50.010;20.020;2023-11-18T17:48:24;35.10;;;24.80;;